createdAt,value
2018-07-29T00:01:15.213Z,23.90
2018-07-29T00:03:44.608Z,23.90
2018-07-29T00:06:14.124Z,23.80
2018-07-29T00:08:43.246Z,23.80
2018-07-29T00:11:12.482Z,23.80
2018-07-29T00:13:41.557Z,23.80
2018-07-29T00:16:12.227Z,23.70
2018-07-29T00:18:41.371Z,23.70
2018-07-29T00:21:10.779Z,23.70
2018-07-29T00:23:40.526Z,23.70
2018-07-29T00:26:10.381Z,23.70
2018-07-29T00:28:39.698Z,23.70
2018-07-29T00:31:09.108Z,23.60
2018-07-29T00:33:38.099Z,23.60
2018-07-29T00:36:07.232Z,23.50
2018-07-29T00:38:36.214Z,23.60
2018-07-29T00:41:05.429Z,23.50
2018-07-29T00:43:34.577Z,23.50
2018-07-29T00:46:03.775Z,23.40
2018-07-29T00:48:32.946Z,23.40
2018-07-29T00:51:06.061Z,23.30
2018-07-29T00:53:36.600Z,23.30
2018-07-29T00:56:08.440Z,23.20
2018-07-29T00:58:38.230Z,23.20
2018-07-29T01:01:10.686Z,23.10
2018-07-29T01:03:40.876Z,23.10
2018-07-29T01:06:12.159Z,23.00
2018-07-29T01:08:41.234Z,23.00
2018-07-29T01:11:10.694Z,23.00
2018-07-29T01:13:40.268Z,23.00
2018-07-29T01:16:13.668Z,22.90
2018-07-29T01:18:43.974Z,22.90
2018-07-29T01:21:12.870Z,22.80
2018-07-29T01:23:43.218Z,22.80
2018-07-29T01:26:12.552Z,22.80
2018-07-29T01:28:41.450Z,22.70
2018-07-29T01:31:16.039Z,22.60
2018-07-29T01:33:47.081Z,22.50
2018-07-29T01:36:42.666Z,22.30
2018-07-29T01:39:13.000Z,22.30
2018-07-29T01:41:46.101Z,22.20
2018-07-29T03:02:02.471Z,22.20
2018-07-29T03:04:36.059Z,20.70
2018-07-29T03:07:05.582Z,20.70
2018-07-29T03:09:39.122Z,20.60
2018-07-29T03:14:37.327Z,20.40
2018-07-29T03:17:10.040Z,20.40
2018-07-29T03:19:39.709Z,20.40
2018-07-29T03:22:10.641Z,20.30
2018-07-29T03:24:42.824Z,20.20
2018-07-29T03:29:42.928Z,20.30
2018-07-29T03:32:12.162Z,20.20
2018-07-29T03:34:41.977Z,20.10
2018-07-29T03:37:12.091Z,20.20
2018-07-29T03:39:43.249Z,20.10
2018-07-29T03:42:13.493Z,20.10
2018-07-29T03:44:45.279Z,20.00
2018-07-29T03:47:14.535Z,20.00
2018-07-29T03:49:44.055Z,20.00
2018-07-29T03:52:14.544Z,20.00
2018-07-29T03:54:44.760Z,20.00
2018-07-29T03:57:16.058Z,20.00
2018-07-29T03:59:45.277Z,20.10
2018-07-29T04:02:14.684Z,20.00
2018-07-29T04:04:44.696Z,19.90
2018-07-29T04:07:14.900Z,19.90
2018-07-29T04:09:44.194Z,19.80
2018-07-29T04:12:13.917Z,19.70
2018-07-29T04:14:43.476Z,19.70
2018-07-29T04:17:12.726Z,19.70
2018-07-29T04:19:42.601Z,19.80
2018-07-29T04:22:12.125Z,19.70
2018-07-29T04:24:41.922Z,19.70
2018-07-29T04:27:11.066Z,19.70
2018-07-29T04:29:41.443Z,19.70
2018-07-29T04:32:11.511Z,19.70
2018-07-29T04:34:40.861Z,19.80
2018-07-29T04:37:10.598Z,19.80
2018-07-29T04:39:39.988Z,19.90
2018-07-29T04:42:15.580Z,19.90
2018-07-29T04:44:46.058Z,19.80
2018-07-29T04:47:16.780Z,19.80
2018-07-29T04:49:46.831Z,19.90
2018-07-29T04:52:16.498Z,19.90
2018-07-29T04:54:46.801Z,19.90
2018-07-29T04:57:16.402Z,20.00
2018-07-29T04:59:46.863Z,20.20
2018-07-29T05:02:16.476Z,20.30
2018-07-29T05:04:49.969Z,20.40
2018-07-29T05:07:19.257Z,20.50
2018-07-29T05:09:49.955Z,20.60
2018-07-29T05:12:19.640Z,20.70
2018-07-29T05:14:53.036Z,20.80
2018-07-29T05:17:23.584Z,20.80
2018-07-29T05:19:53.560Z,20.80
2018-07-29T05:22:24.335Z,20.90
2018-07-29T05:24:54.796Z,21.00
2018-07-29T05:27:24.313Z,21.00
2018-07-29T05:29:54.778Z,21.00
2018-07-29T05:32:24.009Z,21.00
2018-07-29T05:34:55.529Z,21.10
2018-07-29T05:37:25.560Z,21.10
2018-07-29T05:39:55.793Z,21.20
2018-07-29T05:42:25.844Z,21.20
2018-07-29T05:44:56.016Z,21.30
2018-07-29T05:47:26.436Z,21.30
2018-07-29T05:49:57.583Z,21.40
2018-07-29T05:52:32.446Z,21.50
2018-07-29T05:55:02.799Z,21.70
2018-07-29T05:57:32.059Z,21.60
2018-07-29T06:00:02.067Z,21.70
2018-07-29T06:02:31.963Z,21.80
2018-07-29T06:05:01.378Z,21.90
2018-07-29T06:07:30.491Z,22.00
2018-07-29T06:09:59.393Z,22.00
2018-07-29T06:12:28.441Z,22.00
2018-07-29T06:14:57.442Z,22.00
2018-07-29T06:17:26.384Z,22.10
2018-07-29T06:19:55.246Z,22.20
2018-07-29T06:22:24.160Z,22.30
2018-07-29T06:24:53.076Z,22.30
2018-07-29T06:27:21.998Z,22.40
2018-07-29T06:29:50.906Z,22.50
2018-07-29T06:32:19.818Z,22.50
2018-07-29T06:34:48.700Z,22.60
2018-07-29T06:37:20.532Z,22.70
2018-07-29T06:39:49.410Z,22.90
2018-07-29T06:42:18.346Z,22.90
2018-07-29T06:44:47.301Z,22.90
2018-07-29T06:47:16.186Z,22.80
2018-07-29T06:49:45.179Z,22.80
2018-07-29T06:54:42.591Z,23.00
2018-07-29T06:57:11.759Z,23.20
2018-07-29T06:59:40.731Z,23.30
2018-07-29T07:02:09.639Z,23.50
2018-07-29T07:04:38.510Z,23.60
2018-07-29T07:07:07.426Z,23.50
2018-07-29T07:09:36.302Z,23.60
2018-07-29T07:12:05.284Z,23.70
2018-07-29T07:14:34.322Z,23.60
2018-07-29T07:17:03.246Z,23.70
2018-07-29T07:19:32.122Z,23.70
2018-07-29T07:22:01.063Z,23.80
2018-07-29T07:24:30.187Z,23.80
2018-07-29T07:26:59.182Z,23.70
2018-07-29T07:29:28.087Z,23.70
2018-07-29T07:31:57.030Z,23.80
2018-07-29T07:34:26.006Z,24.00
2018-07-29T07:36:55.121Z,24.20
2018-07-29T07:39:24.018Z,24.30
2018-07-29T07:41:53.178Z,24.50
2018-07-29T07:44:22.082Z,24.60
2018-07-29T07:46:50.973Z,24.60
2018-07-29T07:49:19.857Z,24.50
2018-07-29T07:51:48.759Z,24.60
2018-07-29T07:54:17.803Z,24.80
2018-07-29T07:56:46.690Z,24.90
2018-07-29T07:59:15.697Z,25.00
2018-07-29T08:01:44.594Z,25.10
2018-07-29T08:04:13.437Z,25.20
2018-07-29T08:06:42.346Z,25.30
2018-07-29T08:09:11.821Z,25.60
2018-07-29T08:11:40.718Z,25.70
2018-07-29T08:14:09.639Z,25.70
2018-07-29T08:16:38.502Z,25.60
2018-07-29T08:19:07.417Z,25.70
2018-07-29T08:21:36.277Z,25.80
2018-07-29T08:24:05.262Z,26.00
2018-07-29T08:26:34.138Z,26.30
2018-07-29T08:29:03.170Z,26.30
2018-07-29T08:31:32.086Z,26.50
2018-07-29T08:34:01.033Z,26.70
2018-07-29T08:36:29.966Z,26.60
2018-07-29T08:38:58.939Z,26.60
2018-07-29T08:41:27.848Z,26.60
2018-07-29T08:43:56.782Z,26.70
2018-07-29T08:46:25.678Z,26.70
2018-07-29T08:48:54.574Z,26.70
2018-07-29T08:51:23.462Z,26.90
2018-07-29T08:53:52.367Z,27.00
2018-07-29T08:56:21.244Z,27.20
2018-07-29T08:58:50.118Z,27.20
2018-07-29T09:06:16.026Z,27.40
2018-07-29T09:08:44.915Z,27.40
2018-07-29T09:11:13.827Z,27.40
2018-07-29T09:13:42.737Z,27.50
2018-07-29T09:16:11.663Z,27.70
2018-07-29T09:18:40.558Z,27.90
2018-07-29T09:21:09.431Z,27.90
2018-07-29T09:23:38.333Z,28.00
2018-07-29T09:26:07.203Z,28.20
2018-07-29T09:28:36.091Z,28.50
2018-07-29T09:31:05.018Z,28.50
2018-07-29T09:33:33.885Z,28.40
2018-07-29T09:36:02.826Z,28.70
2018-07-29T09:38:31.746Z,28.80
2018-07-29T09:41:00.674Z,29.10
2018-07-29T09:43:29.858Z,29.20
2018-07-29T09:45:58.975Z,29.20
2018-07-29T09:48:27.915Z,29.20
2018-07-29T09:53:25.318Z,29.30
2018-07-29T09:55:54.182Z,29.10
2018-07-29T09:58:23.102Z,29.00
2018-07-29T10:03:24.830Z,29.10
2018-07-29T10:05:53.737Z,29.30
2018-07-29T10:08:22.698Z,29.20
2018-07-29T10:10:51.688Z,29.30
2018-07-29T10:13:20.563Z,29.40
2018-07-29T10:15:49.567Z,29.40
2018-07-29T10:18:18.449Z,29.40
2018-07-29T10:20:47.319Z,29.60
2018-07-29T10:23:16.209Z,29.90
2018-07-29T10:25:45.107Z,30.30
2018-07-29T10:28:14.038Z,30.10
2018-07-29T10:30:42.910Z,30.20
2018-07-29T10:33:11.822Z,30.10
2018-07-29T10:35:40.742Z,30.30
2018-07-29T10:38:09.658Z,30.50
2018-07-29T10:43:07.079Z,30.70
2018-07-29T10:45:35.969Z,30.40
2018-07-29T10:48:05.017Z,30.30
2018-07-29T10:50:33.920Z,30.40
2018-07-29T10:53:02.831Z,30.40
2018-07-29T10:55:31.673Z,30.40
2018-07-29T10:58:00.579Z,30.80
2018-07-29T11:00:29.478Z,30.90
2018-07-29T11:02:58.438Z,31.20
2018-07-29T11:05:27.355Z,31.30
2018-07-29T11:07:56.314Z,30.70
2018-07-29T11:10:25.203Z,30.70
2018-07-29T11:12:54.120Z,30.70
2018-07-29T11:17:51.545Z,30.50
2018-07-29T11:20:20.446Z,30.40
2018-07-29T11:22:49.493Z,30.10
2018-07-29T11:25:18.381Z,30.10
2018-07-29T11:27:47.390Z,30.30
2018-07-29T11:30:16.273Z,29.40
2018-07-29T11:32:45.218Z,30.70
2018-07-29T11:35:14.162Z,31.40
2018-07-29T11:37:43.051Z,31.70
2018-07-29T11:42:40.433Z,31.90
2018-07-29T11:45:09.373Z,32.10
2018-07-29T11:47:38.275Z,32.70
2018-07-29T11:50:07.241Z,32.90
2018-07-29T11:52:36.134Z,32.80
2018-07-29T11:55:05.282Z,32.40
2018-07-29T11:57:34.215Z,31.90
2018-07-29T12:00:03.185Z,31.70
2018-07-29T12:05:00.666Z,32.00
2018-07-29T12:07:29.626Z,32.80
2018-07-29T12:09:58.568Z,33.10
2018-07-29T12:12:27.475Z,32.90
2018-07-29T12:14:57.456Z,33.00
2018-07-29T12:17:26.748Z,32.80
2018-07-29T12:19:55.657Z,33.20
2018-07-29T12:22:24.570Z,33.40
2018-07-29T12:24:53.632Z,33.30
2018-07-29T12:27:22.814Z,33.40
2018-07-29T12:29:51.685Z,33.70
2018-07-29T12:32:20.583Z,33.80
2018-07-29T12:34:49.522Z,34.00
2018-07-29T12:37:18.398Z,33.80
2018-07-29T12:39:47.313Z,33.70
2018-07-29T12:42:16.174Z,33.80
2018-07-29T12:44:45.106Z,33.90
2018-07-29T12:47:13.985Z,34.40
2018-07-29T12:49:42.874Z,35.00
2018-07-29T12:52:11.759Z,35.00
2018-07-29T12:54:40.663Z,34.90
2018-07-29T12:57:09.574Z,35.00
2018-07-29T12:59:38.518Z,35.10
2018-07-29T13:02:07.442Z,34.90
2018-07-29T13:04:36.347Z,33.80
2018-07-29T13:07:05.773Z,33.60
2018-07-29T13:09:34.694Z,34.00
2018-07-29T13:12:03.626Z,34.20
2018-07-29T13:14:32.530Z,34.70
2018-07-29T13:17:01.478Z,34.80
2018-07-29T13:19:30.364Z,35.20
2018-07-29T13:21:59.331Z,35.40
2018-07-29T13:24:28.234Z,35.40
2018-07-29T13:26:57.138Z,35.50
2018-07-29T13:29:26.038Z,35.30
2018-07-29T13:31:54.942Z,35.30
2018-07-29T13:34:23.933Z,35.60
2018-07-29T13:39:21.337Z,35.80
2018-07-29T13:41:50.254Z,35.60
2018-07-29T13:44:19.150Z,35.40
2018-07-29T13:46:48.102Z,35.10
2018-07-29T13:49:17.120Z,35.10
2018-07-29T13:51:46.079Z,35.00
2018-07-29T13:54:14.994Z,34.90
2018-07-29T13:56:43.924Z,35.50
2018-07-29T13:59:12.858Z,35.90
2018-07-29T14:01:41.908Z,35.90
2018-07-29T14:04:10.795Z,35.20
2018-07-29T14:06:39.728Z,35.10
2018-07-29T14:09:10.134Z,34.80
2018-07-29T14:11:39.058Z,34.60
2018-07-29T14:14:08.142Z,34.70
2018-07-29T14:16:37.406Z,34.60
2018-07-29T14:19:06.339Z,34.60
2018-07-29T14:21:35.234Z,34.60
2018-07-29T14:24:04.214Z,34.20
2018-07-29T14:26:33.604Z,34.20
2018-07-29T14:29:02.541Z,34.00
2018-07-29T14:31:31.442Z,33.70
2018-07-29T14:34:00.351Z,33.50
2018-07-29T14:36:29.320Z,33.30
2018-07-29T14:38:58.243Z,33.20
2018-07-29T14:41:27.239Z,33.40
2018-07-29T14:43:56.219Z,33.30
2018-07-29T14:46:25.138Z,33.30
2018-07-29T14:48:54.443Z,33.20
2018-07-29T14:51:23.322Z,33.00
2018-07-29T14:53:52.183Z,32.90
2018-07-29T14:56:21.090Z,32.70
2018-07-29T14:58:50.243Z,32.60
2018-07-29T15:01:19.158Z,32.60
2018-07-29T15:03:48.078Z,32.60
2018-07-29T15:06:17.184Z,32.60
2018-07-29T15:08:46.115Z,32.50
2018-07-29T15:11:15.289Z,32.70
2018-07-29T15:13:44.173Z,32.50
2018-07-29T15:16:13.136Z,32.50
2018-07-29T15:18:42.042Z,32.50
2018-07-29T15:23:39.532Z,32.50
2018-07-29T15:26:08.446Z,32.40
2018-07-29T15:28:37.346Z,32.40
2018-07-29T15:31:06.634Z,32.60
2018-07-29T15:33:35.677Z,32.50
2018-07-29T15:36:04.622Z,32.80
2018-07-29T15:38:33.546Z,33.00
2018-07-29T15:41:02.675Z,33.00
2018-07-29T15:43:32.354Z,33.40
2018-07-29T15:48:29.913Z,34.60
2018-07-29T15:50:58.938Z,34.80
2018-07-29T15:53:28.061Z,34.90
2018-07-29T15:55:57.052Z,35.00
2018-07-29T15:58:26.539Z,35.20
2018-07-29T16:00:55.535Z,35.20
2018-07-29T16:03:24.409Z,35.40
2018-07-29T16:05:53.827Z,35.30
2018-07-29T16:08:22.710Z,35.40
2018-07-29T16:10:51.602Z,35.00
2018-07-29T16:13:20.482Z,34.80
2018-07-29T16:15:49.397Z,34.90
2018-07-29T16:18:18.311Z,34.80
2018-07-29T16:20:47.198Z,34.70
2018-07-29T16:23:16.148Z,34.00
2018-07-29T16:25:45.126Z,34.00
2018-07-29T16:28:14.024Z,33.80
2018-07-29T16:30:42.935Z,33.90
2018-07-29T16:33:11.905Z,33.80
2018-07-29T16:35:40.810Z,33.40
2018-07-29T16:38:09.734Z,33.40
2018-07-29T16:40:38.638Z,34.40
2018-07-29T16:43:07.524Z,35.10
2018-07-29T16:45:36.435Z,35.90
2018-07-29T16:48:06.238Z,36.50
2018-07-29T16:50:35.273Z,37.40
2018-07-29T16:53:04.174Z,38.20
2018-07-29T16:55:33.150Z,37.90
2018-07-29T16:58:02.173Z,38.70
2018-07-29T17:00:31.106Z,38.30
2018-07-29T17:03:00.180Z,38.50
2018-07-29T17:05:29.087Z,38.80
2018-07-29T17:07:57.982Z,39.40
2018-07-29T17:10:27.570Z,39.30
2018-07-29T17:12:56.466Z,39.10
2018-07-29T17:15:25.405Z,39.30
2018-07-29T17:17:54.334Z,39.50
2018-07-29T17:20:23.227Z,38.80
2018-07-29T17:22:52.106Z,38.10
2018-07-29T17:25:21.074Z,36.50
2018-07-29T17:27:49.947Z,35.50
2018-07-29T17:30:18.974Z,34.60
2018-07-29T17:32:47.869Z,34.10
2018-07-29T17:35:16.774Z,33.40
2018-07-29T17:37:45.694Z,32.90
2018-07-29T17:40:14.638Z,32.40
2018-07-29T17:42:43.550Z,32.30
2018-07-29T17:45:12.437Z,32.10
2018-07-29T17:47:41.457Z,32.00
2018-07-29T17:50:10.453Z,31.80
2018-07-29T17:52:39.333Z,31.70
2018-07-29T17:55:08.250Z,31.70
2018-07-29T17:57:37.129Z,31.40
2018-07-29T18:00:06.454Z,31.10
2018-07-29T18:02:35.439Z,31.00
2018-07-29T18:05:04.492Z,30.90
2018-07-29T18:07:33.426Z,30.80
2018-07-29T18:10:02.347Z,30.70
2018-07-29T18:12:31.486Z,30.50
2018-07-29T18:15:00.463Z,30.40
2018-07-29T18:17:29.810Z,30.40
2018-07-29T18:19:58.758Z,30.20
2018-07-29T18:22:27.699Z,30.20
2018-07-29T18:24:56.802Z,30.10
2018-07-29T18:27:25.700Z,30.00
2018-07-29T18:29:54.685Z,30.00
2018-07-29T18:32:23.578Z,29.90
2018-07-29T18:34:52.610Z,29.90
2018-07-29T18:37:21.537Z,29.70
2018-07-29T18:39:50.726Z,29.60
2018-07-29T18:42:19.638Z,29.60
2018-07-29T18:44:48.522Z,29.50
2018-07-29T18:47:17.449Z,29.50
2018-07-29T18:49:46.427Z,29.40
2018-07-29T18:52:15.353Z,29.40
2018-07-29T18:54:44.474Z,29.30
2018-07-29T18:57:13.413Z,29.30
2018-07-29T18:59:42.282Z,29.20
2018-07-29T19:02:11.405Z,29.10
2018-07-29T19:04:40.300Z,29.00
2018-07-29T19:07:09.238Z,28.90
2018-07-29T19:09:38.155Z,28.80
2018-07-29T19:12:07.147Z,28.80
2018-07-29T19:14:36.174Z,28.70
2018-07-29T19:17:05.078Z,28.60
2018-07-29T19:19:34.019Z,28.50
2018-07-29T19:22:03.000Z,28.50
2018-07-29T19:24:31.921Z,28.50
2018-07-29T19:27:00.830Z,28.30
2018-07-29T19:29:29.738Z,28.20
2018-07-29T19:31:58.849Z,28.10
2018-07-29T19:36:56.493Z,28.00
2018-07-29T19:39:25.394Z,28.00
2018-07-29T19:41:54.342Z,27.90
2018-07-29T19:44:23.450Z,27.90
2018-07-29T19:46:52.379Z,27.70
2018-07-29T19:49:21.298Z,27.60
2018-07-29T19:51:51.245Z,27.60
2018-07-29T19:56:48.862Z,27.60
2018-07-29T19:59:18.174Z,27.50
2018-07-29T20:01:47.559Z,27.40
2018-07-29T20:04:16.688Z,27.30
2018-07-29T20:06:45.735Z,27.40
2018-07-29T20:09:14.714Z,27.50
2018-07-29T20:11:43.618Z,27.50
2018-07-29T20:14:12.531Z,27.40
2018-07-29T20:16:41.559Z,27.30
2018-07-29T20:19:10.456Z,27.40
2018-07-29T20:21:39.397Z,27.40
2018-07-29T20:24:08.367Z,27.40
2018-07-29T20:26:37.335Z,27.40
2018-07-29T20:29:06.332Z,27.40
2018-07-29T20:31:35.373Z,27.30
2018-07-29T20:34:04.469Z,27.30
2018-07-29T20:36:33.442Z,27.20
2018-07-29T20:39:02.410Z,27.20
2018-07-29T20:41:31.335Z,27.20
2018-07-29T20:44:00.350Z,27.10
2018-07-29T20:46:29.241Z,26.90
2018-07-29T20:48:58.196Z,26.90
2018-07-29T20:51:27.160Z,26.90
2018-07-29T20:53:56.067Z,26.90
2018-07-29T20:56:25.014Z,27.00
2018-07-29T20:58:53.914Z,26.90
2018-07-29T21:01:22.830Z,26.90
2018-07-29T21:03:51.740Z,26.90
2018-07-29T21:06:20.674Z,26.80
2018-07-29T21:08:49.654Z,26.80
2018-07-29T21:11:18.607Z,26.70
2018-07-29T21:13:47.587Z,26.50
2018-07-29T21:16:16.597Z,26.40
2018-07-29T21:18:45.510Z,26.20
2018-07-29T21:21:14.418Z,25.90
2018-07-29T21:23:43.349Z,25.70
2018-07-29T21:26:12.241Z,25.40
2018-07-29T21:28:41.211Z,25.40
2018-07-29T21:33:38.674Z,25.10
2018-07-29T21:36:07.579Z,24.90
2018-07-29T21:38:36.506Z,24.90
2018-07-29T21:41:05.522Z,24.90
2018-07-29T21:43:34.434Z,24.90
2018-07-29T21:46:03.334Z,24.60
2018-07-29T21:48:32.270Z,24.60
2018-07-29T21:53:29.817Z,24.40
2018-07-29T21:55:58.746Z,24.30
2018-07-29T21:58:27.666Z,24.30
2018-07-29T22:00:56.823Z,24.30
2018-07-29T22:03:25.731Z,24.10
2018-07-29T22:05:54.762Z,24.00
2018-07-29T22:08:23.707Z,23.90
2018-07-29T22:10:52.896Z,24.00
2018-07-29T22:13:21.846Z,24.00
2018-07-29T22:15:50.767Z,24.00
2018-07-29T22:18:19.723Z,23.90
2018-07-29T22:20:48.698Z,23.80
2018-07-29T22:23:17.673Z,23.80
2018-07-29T22:26:23.942Z,23.80
2018-07-29T22:28:58.650Z,23.80
2018-07-29T22:31:28.321Z,23.70
2018-07-29T22:33:57.358Z,23.60
2018-07-29T22:36:26.262Z,23.60
2018-07-29T22:38:55.290Z,23.60
2018-07-29T22:41:24.267Z,23.40
2018-07-29T22:43:53.971Z,23.20
2018-07-29T22:46:23.203Z,23.30
2018-07-29T22:48:54.536Z,23.40
2018-07-29T22:51:23.426Z,23.30
2018-07-29T22:53:52.418Z,23.10
2018-07-29T22:58:50.797Z,23.00
2018-07-29T23:01:19.750Z,23.00
2018-07-29T23:03:48.692Z,22.90
2018-07-29T23:06:17.677Z,22.80
2018-07-29T23:08:46.607Z,22.90
2018-07-29T23:11:15.500Z,22.90
2018-07-29T23:13:44.411Z,22.80
2018-07-29T23:16:13.502Z,22.60
2018-07-29T23:18:42.447Z,22.60
2018-07-29T23:21:11.466Z,22.50
2018-07-29T23:23:40.350Z,22.40
2018-07-29T23:26:09.258Z,22.40
2018-07-29T23:28:38.162Z,22.50
2018-07-29T23:31:07.399Z,22.40
2018-07-29T23:33:36.439Z,22.40
2018-07-29T23:36:05.650Z,22.40
2018-07-29T23:38:34.728Z,22.40
2018-07-29T23:41:03.639Z,22.30
2018-07-29T23:43:32.687Z,22.30
2018-07-29T23:46:01.597Z,22.20
2018-07-29T23:48:30.630Z,22.20
2018-07-29T23:50:59.546Z,22.10
2018-07-29T23:53:28.470Z,22.10
2018-07-29T23:55:57.373Z,22.10
